createdAt,value
2019-05-01T00:01:42.617Z,9.80
2019-05-01T00:05:01.750Z,9.80
2019-05-01T00:08:11.485Z,9.70
2019-05-01T00:11:19.091Z,9.60
2019-05-01T00:14:26.972Z,9.60
2019-05-01T00:17:34.960Z,9.60
2019-05-01T00:20:42.523Z,9.60
2019-05-01T00:23:50.045Z,9.70
2019-05-01T00:26:57.633Z,9.70
2019-05-01T00:30:07.995Z,9.70
2019-05-01T00:33:15.627Z,9.60
2019-05-01T00:36:23.206Z,9.60
2019-05-01T00:39:30.773Z,9.60
2019-05-01T00:42:38.529Z,9.50
2019-05-01T00:45:46.057Z,9.40
2019-05-01T00:48:53.563Z,9.40
2019-05-01T00:52:01.421Z,9.30
2019-05-01T00:55:26.787Z,9.30
2019-05-01T00:58:42.581Z,9.20
2019-05-01T01:02:14.877Z,9.20
2019-05-01T01:05:23.677Z,9.10
2019-05-01T01:08:31.194Z,9.20
2019-05-01T01:11:38.617Z,9.10
2019-05-01T01:14:47.048Z,9.00
2019-05-01T01:17:54.661Z,9.00
2019-05-01T01:21:02.205Z,8.90
2019-05-01T01:24:10.113Z,8.90
2019-05-01T01:27:17.768Z,8.80
2019-05-01T01:30:25.406Z,8.70
2019-05-01T01:33:32.911Z,8.70
2019-05-01T01:36:40.387Z,8.70
2019-05-01T01:39:47.912Z,8.60
2019-05-01T01:42:58.203Z,8.60
2019-05-01T01:46:07.751Z,8.50
2019-05-01T01:49:15.779Z,8.40
2019-05-01T01:52:23.582Z,8.40
2019-05-01T01:55:31.435Z,8.30
2019-05-01T01:58:39.069Z,8.30
2019-05-01T02:02:01.203Z,8.30
2019-05-01T02:05:30.281Z,8.30
2019-05-01T02:08:38.348Z,8.30
2019-05-01T02:11:47.668Z,8.20
2019-05-01T02:14:55.166Z,8.20
2019-05-01T02:18:03.302Z,8.10
2019-05-01T02:21:10.891Z,8.10
2019-05-01T02:24:18.855Z,8.00
2019-05-01T02:27:33.430Z,8.00
2019-05-01T02:30:44.319Z,7.90
2019-05-01T02:33:53.592Z,7.90
2019-05-01T02:37:03.854Z,7.90
2019-05-01T02:40:44.883Z,7.80
2019-05-01T02:43:56.375Z,7.80
2019-05-01T02:47:08.246Z,7.70
2019-05-01T02:50:16.011Z,7.60
2019-05-01T02:53:25.339Z,7.60
2019-05-01T02:56:38.539Z,7.50
2019-05-01T02:59:48.836Z,7.50
2019-05-01T03:02:56.463Z,7.40
2019-05-01T03:06:04.093Z,7.40
2019-05-01T03:09:11.996Z,7.30
2019-05-01T03:12:23.131Z,7.30
2019-05-01T03:15:33.816Z,7.30
2019-05-01T03:18:46.367Z,7.30
2019-05-01T03:22:02.710Z,7.30
2019-05-01T03:25:11.429Z,7.40
2019-05-01T03:28:19.645Z,7.40
2019-05-01T03:31:27.620Z,7.40
2019-05-01T03:34:35.164Z,7.50
2019-05-01T03:37:42.910Z,7.50
2019-05-01T03:40:50.872Z,7.60
2019-05-01T03:43:58.321Z,7.60
2019-05-01T03:47:05.825Z,7.60
2019-05-01T03:50:13.335Z,7.60
2019-05-01T03:53:21.109Z,7.70
2019-05-01T03:56:29.776Z,7.70
2019-05-01T03:59:38.053Z,7.80
2019-05-01T04:02:51.185Z,7.90
2019-05-01T04:05:58.614Z,7.90
2019-05-01T04:09:08.818Z,8.00
2019-05-01T04:12:16.467Z,8.20
2019-05-01T04:15:24.012Z,8.30
2019-05-01T04:18:31.526Z,8.40
2019-05-01T04:21:47.661Z,8.50
2019-05-01T04:24:55.728Z,8.50
2019-05-01T04:28:22.079Z,8.70
2019-05-01T04:31:45.187Z,9.00
2019-05-01T04:34:58.557Z,9.50
2019-05-01T04:38:06.348Z,10.30
2019-05-01T04:41:14.043Z,10.90
2019-05-01T04:44:21.938Z,11.40
2019-05-01T04:47:29.540Z,11.60
2019-05-01T04:50:38.200Z,11.70
2019-05-01T04:53:45.659Z,12.10
2019-05-01T04:56:53.453Z,12.60
2019-05-01T05:00:01.764Z,13.20
2019-05-01T05:03:14.461Z,13.90
2019-05-01T05:06:22.081Z,14.20
2019-05-01T05:09:47.290Z,14.50
2019-05-01T05:13:14.356Z,15.10
2019-05-01T05:16:40.971Z,15.90
2019-05-01T05:19:48.617Z,16.30
2019-05-01T05:22:56.241Z,16.70
2019-05-01T05:26:04.990Z,17.20
2019-05-01T05:29:13.485Z,17.50
2019-05-01T05:32:23.389Z,17.70
2019-05-01T05:35:33.667Z,17.80
2019-05-01T05:39:08.067Z,17.10
2019-05-01T05:42:15.708Z,17.00
2019-05-01T05:45:24.057Z,17.40
2019-05-01T05:48:31.752Z,17.50
2019-05-01T05:52:01.076Z,17.80
2019-05-01T05:55:14.666Z,18.20
2019-05-01T05:58:58.791Z,18.30
2019-05-01T06:02:35.071Z,18.40
2019-05-01T06:06:02.708Z,18.70
2019-05-01T06:09:13.949Z,19.30
2019-05-01T06:12:26.978Z,19.50
2019-05-01T06:15:57.594Z,20.30
2019-05-01T06:19:29.830Z,20.30
2019-05-01T06:22:56.647Z,20.00
2019-05-01T06:26:24.091Z,20.30
2019-05-01T06:29:35.814Z,19.90
2019-05-01T06:32:42.146Z,19.70
2019-05-01T06:35:49.735Z,19.80
2019-05-01T06:38:58.101Z,19.10
2019-05-01T06:42:09.869Z,19.00
2019-05-01T06:45:18.033Z,19.50
2019-05-01T06:48:27.092Z,19.40
2019-05-01T06:51:47.918Z,19.00
2019-05-01T06:54:55.647Z,19.20
2019-05-01T06:58:03.576Z,19.60
2019-05-01T07:01:13.764Z,19.80
2019-05-01T07:04:21.129Z,20.00
2019-05-01T07:07:29.237Z,20.00
2019-05-01T07:10:43.953Z,20.00
2019-05-01T07:13:55.529Z,20.20
2019-05-01T07:17:02.032Z,19.40
2019-05-01T07:20:39.252Z,19.90
2019-05-01T07:23:47.852Z,20.00
2019-05-01T07:26:59.795Z,20.50
2019-05-01T07:30:15.915Z,20.90
2019-05-01T07:33:25.524Z,20.50
2019-05-01T07:36:33.178Z,20.10
2019-05-01T07:39:44.905Z,19.80
2019-05-01T07:42:52.630Z,20.10
2019-05-01T07:46:22.550Z,19.80
2019-05-01T07:49:54.690Z,19.20
2019-05-01T07:53:02.829Z,19.20
2019-05-01T07:56:10.915Z,19.60
2019-05-01T07:59:22.816Z,19.40
2019-05-01T08:02:31.129Z,19.50
2019-05-01T08:05:40.826Z,19.40
2019-05-01T08:08:47.269Z,19.70
2019-05-01T08:11:54.792Z,20.30
2019-05-01T08:15:02.395Z,21.10
2019-05-01T08:18:17.298Z,21.00
2019-05-01T08:21:57.046Z,21.20
2019-05-01T08:25:02.280Z,21.40
2019-05-01T08:28:18.934Z,21.20
2019-05-01T08:31:37.270Z,21.60
2019-05-01T08:34:49.267Z,21.40
2019-05-01T08:37:58.509Z,22.10
2019-05-01T08:41:03.927Z,22.90
2019-05-01T08:44:11.507Z,22.80
2019-05-01T08:47:28.453Z,22.80
2019-05-01T08:50:36.240Z,22.30
2019-05-01T08:53:43.711Z,23.40
2019-05-01T08:56:52.924Z,24.00
2019-05-01T09:00:01.684Z,23.10
2019-05-01T09:03:13.518Z,23.00
2019-05-01T09:06:20.072Z,22.90
2019-05-01T09:09:27.760Z,23.40
2019-05-01T09:12:35.597Z,23.90
2019-05-01T09:15:43.836Z,23.70
2019-05-01T09:18:52.592Z,23.90
2019-05-01T09:22:00.334Z,23.10
2019-05-01T09:25:09.402Z,22.90
2019-05-01T09:28:25.663Z,22.80
2019-05-01T09:31:35.554Z,22.80
2019-05-01T09:34:43.269Z,22.70
2019-05-01T09:37:51.156Z,22.40
2019-05-01T09:41:00.741Z,22.60
2019-05-01T09:44:10.613Z,22.50
2019-05-01T09:47:17.958Z,22.90
2019-05-01T09:50:30.329Z,22.80
2019-05-01T09:53:48.326Z,22.20
2019-05-01T09:56:55.950Z,22.30
2019-05-01T10:00:05.252Z,22.10
2019-05-01T10:03:16.863Z,22.50
2019-05-01T10:06:22.929Z,22.90
2019-05-01T10:09:30.455Z,22.80
2019-05-01T10:12:41.910Z,22.60
2019-05-01T10:15:47.342Z,22.20
2019-05-01T10:18:55.290Z,22.30
2019-05-01T10:22:03.759Z,22.10
2019-05-01T10:25:13.576Z,22.50
2019-05-01T10:28:50.137Z,22.40
2019-05-01T10:32:06.587Z,22.10
2019-05-01T10:35:42.617Z,22.50
2019-05-01T10:38:45.006Z,22.60
2019-05-01T10:41:51.391Z,22.40
2019-05-01T10:44:58.851Z,22.70
2019-05-01T10:48:06.915Z,22.40
2019-05-01T10:51:16.308Z,22.50
2019-05-01T10:54:24.298Z,22.30
2019-05-01T10:57:35.010Z,22.20
2019-05-01T11:00:43.184Z,21.90
2019-05-01T11:03:50.852Z,21.90
2019-05-01T11:06:58.646Z,22.10
2019-05-01T11:10:07.404Z,22.80
2019-05-01T11:13:15.324Z,22.50
2019-05-01T11:16:23.084Z,22.70
2019-05-01T11:19:31.072Z,22.60
2019-05-01T11:22:38.806Z,22.20
2019-05-01T11:25:46.288Z,22.20
2019-05-01T11:28:53.868Z,22.20
2019-05-01T11:32:18.298Z,21.60
2019-05-01T11:35:44.731Z,21.40
2019-05-01T11:39:11.262Z,20.90
2019-05-01T11:42:18.956Z,20.60
2019-05-01T11:45:27.609Z,20.40
2019-05-01T11:48:35.578Z,20.40
2019-05-01T11:51:43.413Z,20.40
2019-05-01T11:54:51.221Z,20.80
2019-05-01T11:57:58.907Z,20.90
2019-05-01T12:01:07.465Z,20.70
2019-05-01T12:04:15.383Z,20.70
2019-05-01T12:07:22.943Z,20.70
2019-05-01T12:10:30.541Z,20.70
2019-05-01T12:13:43.911Z,20.70
2019-05-01T12:17:04.974Z,20.30
2019-05-01T12:20:13.702Z,20.00
2019-05-01T12:23:21.608Z,19.90
2019-05-01T12:26:29.028Z,19.80
2019-05-01T12:29:36.922Z,20.00
2019-05-01T12:32:44.418Z,20.00
2019-05-01T12:35:53.415Z,19.80
2019-05-01T12:39:00.887Z,19.50
2019-05-01T12:42:10.053Z,19.30
2019-05-01T12:45:17.929Z,19.20
2019-05-01T12:48:25.412Z,19.00
2019-05-01T12:51:33.131Z,18.70
2019-05-01T12:54:53.982Z,18.80
2019-05-01T12:58:01.497Z,18.50
2019-05-01T13:01:08.966Z,18.50
2019-05-01T13:04:16.398Z,18.20
2019-05-01T13:07:24.207Z,18.30
2019-05-01T13:10:31.655Z,18.20
2019-05-01T13:13:39.178Z,18.20
2019-05-01T13:16:46.654Z,18.30
2019-05-01T13:19:54.092Z,18.10
2019-05-01T13:23:01.613Z,18.10
2019-05-01T13:26:30.850Z,17.90
2019-05-01T13:29:42.987Z,17.70
2019-05-01T13:32:51.782Z,17.70
2019-05-01T13:35:59.208Z,17.90
2019-05-01T13:39:09.838Z,17.90
2019-05-01T13:42:17.374Z,17.80
2019-05-01T13:45:24.849Z,17.80
2019-05-01T13:48:32.312Z,17.70
2019-05-01T13:51:39.758Z,17.80
2019-05-01T13:54:47.196Z,17.70
2019-05-01T13:57:54.696Z,17.60
2019-05-01T14:01:02.248Z,17.70
2019-05-01T14:04:11.932Z,17.90
2019-05-01T14:07:19.627Z,18.00
2019-05-01T14:10:27.470Z,18.20
2019-05-01T14:13:35.006Z,18.20
2019-05-01T14:16:42.492Z,18.20
2019-05-01T14:19:59.071Z,18.30
2019-05-01T14:23:11.928Z,18.30
2019-05-01T14:26:19.386Z,18.00
2019-05-01T14:29:26.834Z,18.00
2019-05-01T14:32:34.240Z,17.70
2019-05-01T14:35:41.708Z,17.80
2019-05-01T14:38:49.313Z,17.90
2019-05-01T14:41:56.822Z,17.70
2019-05-01T14:45:05.042Z,17.40
2019-05-01T14:48:12.468Z,17.30
2019-05-01T14:51:21.770Z,17.20
2019-05-01T14:54:29.338Z,17.20
2019-05-01T14:57:36.822Z,17.20
2019-05-01T15:00:44.479Z,17.20
2019-05-01T15:03:51.928Z,17.20
2019-05-01T15:07:00.249Z,17.20
2019-05-01T15:10:08.139Z,17.10
2019-05-01T15:13:26.042Z,17.00
2019-05-01T15:16:38.124Z,16.80
2019-05-01T15:19:55.515Z,16.80
2019-05-01T15:23:03.138Z,16.80
2019-05-01T15:26:10.572Z,16.90
2019-05-01T15:29:18.074Z,16.80
2019-05-01T15:32:25.539Z,16.80
2019-05-01T15:35:34.478Z,16.80
2019-05-01T15:38:41.913Z,16.80
2019-05-01T15:42:10.966Z,16.80
2019-05-01T15:45:20.093Z,16.70
2019-05-01T15:48:27.900Z,16.70
2019-05-01T15:51:36.537Z,16.50
2019-05-01T15:54:44.094Z,16.50
2019-05-01T15:57:51.528Z,16.30
2019-05-01T16:01:00.132Z,16.30
2019-05-01T16:04:07.674Z,16.30
2019-05-01T16:07:15.119Z,16.30
2019-05-01T16:10:27.019Z,16.30
2019-05-01T16:13:34.611Z,16.20
2019-05-01T16:16:42.114Z,16.10
2019-05-01T16:19:49.610Z,16.00
2019-05-01T16:22:57.447Z,16.00
2019-05-01T16:26:05.020Z,15.90
2019-05-01T16:29:12.510Z,15.90
2019-05-01T16:32:20.016Z,16.00
2019-05-01T16:35:27.560Z,16.00
2019-05-01T16:38:49.882Z,15.90
2019-05-01T16:41:57.373Z,15.80
2019-05-01T16:45:06.194Z,15.60
2019-05-01T16:48:13.852Z,15.50
2019-05-01T16:51:28.325Z,15.40
2019-05-01T16:54:35.900Z,15.30
2019-05-01T16:57:43.386Z,15.20
2019-05-01T17:01:06.898Z,15.10
2019-05-01T17:04:28.920Z,15.10
2019-05-01T17:07:44.343Z,15.10
2019-05-01T17:10:51.951Z,15.10
2019-05-01T17:14:01.172Z,15.10
2019-05-01T17:17:39.317Z,15.00
2019-05-01T17:20:50.374Z,14.90
2019-05-01T17:23:57.838Z,14.80
2019-05-01T17:27:05.379Z,14.70
2019-05-01T17:30:18.535Z,14.70
2019-05-01T17:33:26.069Z,14.60
2019-05-01T17:36:33.532Z,14.50
2019-05-01T17:39:40.957Z,14.50
2019-05-01T17:42:49.991Z,14.50
2019-05-01T17:45:57.592Z,14.40
2019-05-01T17:49:09.308Z,14.40
2019-05-01T17:52:14.241Z,14.40
2019-05-01T17:55:21.805Z,14.30
2019-05-01T17:58:29.346Z,14.30
2019-05-01T18:01:57.522Z,14.30
2019-05-01T18:05:27.065Z,14.30
2019-05-01T18:08:34.473Z,14.30
2019-05-01T18:11:42.054Z,14.30
2019-05-01T18:14:49.629Z,14.30
2019-05-01T18:17:57.180Z,14.20
2019-05-01T18:21:04.979Z,14.20
2019-05-01T18:24:30.175Z,14.20
2019-05-01T18:28:02.469Z,14.10
2019-05-01T18:31:15.881Z,14.10
2019-05-01T18:34:23.297Z,14.00
2019-05-01T18:37:36.421Z,13.90
2019-05-01T18:40:49.328Z,13.80
2019-05-01T18:43:56.793Z,13.70
2019-05-01T18:47:04.764Z,13.70
2019-05-01T18:50:13.656Z,13.60
2019-05-01T18:53:21.336Z,13.50
2019-05-01T18:56:29.400Z,13.40
2019-05-01T18:59:36.975Z,13.40
2019-05-01T19:02:44.511Z,13.30
2019-05-01T19:05:52.208Z,13.30
2019-05-01T19:08:59.679Z,13.20
2019-05-01T19:12:09.638Z,13.20
2019-05-01T19:15:17.294Z,13.10
2019-05-01T19:18:24.877Z,13.00
2019-05-01T19:21:32.858Z,12.80
2019-05-01T19:24:41.947Z,12.70
2019-05-01T19:27:49.435Z,12.60
2019-05-01T19:30:57.057Z,12.50
2019-05-01T19:34:04.592Z,12.40
2019-05-01T19:37:16.522Z,12.30
2019-05-01T19:40:24.962Z,12.20
2019-05-01T19:43:35.912Z,12.00
2019-05-01T19:46:41.216Z,11.90
2019-05-01T19:49:48.762Z,11.70
2019-05-01T19:52:57.323Z,11.50
2019-05-01T19:56:04.957Z,11.40
2019-05-01T19:59:12.425Z,11.30
2019-05-01T20:02:22.301Z,11.20
2019-05-01T20:05:29.218Z,11.20
2019-05-01T20:08:36.849Z,11.20
2019-05-01T20:11:44.461Z,11.10
2019-05-01T20:14:52.195Z,11.10
2019-05-01T20:17:59.663Z,11.10
2019-05-01T20:21:07.557Z,11.20
2019-05-01T20:24:15.070Z,11.10
2019-05-01T20:27:23.242Z,11.20
2019-05-01T20:30:30.911Z,11.10
2019-05-01T20:33:40.916Z,11.10
2019-05-01T20:36:47.714Z,11.10
2019-05-01T20:40:09.815Z,11.10
2019-05-01T20:43:07.223Z,11.10
2019-05-01T20:46:15.037Z,11.10
2019-05-01T20:49:22.595Z,11.10
2019-05-01T20:52:30.168Z,11.00
2019-05-01T20:55:37.749Z,11.00
2019-05-01T20:58:45.320Z,11.00
2019-05-01T21:01:52.799Z,11.00
2019-05-01T21:05:24.975Z,10.90
2019-05-01T21:08:41.105Z,10.90
2019-05-01T21:12:04.497Z,10.90
2019-05-01T21:15:00.509Z,10.80
2019-05-01T21:18:08.172Z,10.80
2019-05-01T21:21:15.665Z,10.70
2019-05-01T21:24:24.010Z,10.70
2019-05-01T21:27:33.479Z,10.70
2019-05-01T21:30:43.955Z,10.70
2019-05-01T21:33:50.635Z,10.70
2019-05-01T21:36:58.073Z,10.70
2019-05-01T21:40:06.490Z,10.60
2019-05-01T21:43:14.031Z,10.60
2019-05-01T21:46:22.742Z,10.50
2019-05-01T21:49:33.127Z,10.50
2019-05-01T21:52:40.615Z,10.50
2019-05-01T21:55:48.269Z,10.50
2019-05-01T21:58:59.527Z,10.40
2019-05-01T22:02:09.650Z,10.50
2019-05-01T22:05:14.513Z,10.40
2019-05-01T22:08:22.436Z,10.40
2019-05-01T22:11:33.149Z,10.30
2019-05-01T22:14:45.582Z,10.30
2019-05-01T22:18:03.011Z,10.20
2019-05-01T22:21:19.373Z,10.20
2019-05-01T22:24:47.649Z,10.20
2019-05-01T22:28:01.345Z,10.20
2019-05-01T22:31:36.996Z,10.10
2019-05-01T22:34:48.245Z,10.10
2019-05-01T22:37:55.731Z,10.10
2019-05-01T22:41:08.234Z,10.00
2019-05-01T22:44:18.053Z,10.00
2019-05-01T22:47:24.773Z,10.00
2019-05-01T22:50:32.234Z,10.10
2019-05-01T22:53:39.773Z,10.00
2019-05-01T22:56:47.797Z,10.10
2019-05-01T22:59:55.353Z,10.20
2019-05-01T23:03:07.014Z,10.20
2019-05-01T23:06:14.707Z,10.30
2019-05-01T23:09:28.348Z,10.30
2019-05-01T23:12:32.833Z,10.40
2019-05-01T23:15:40.433Z,10.50
2019-05-01T23:18:51.974Z,10.50
2019-05-01T23:21:58.857Z,10.60
2019-05-01T23:25:07.068Z,10.70
2019-05-01T23:28:14.609Z,10.70
2019-05-01T23:31:22.217Z,10.70
2019-05-01T23:34:29.658Z,10.60
2019-05-01T23:37:37.631Z,10.60
2019-05-01T23:40:51.089Z,10.60
2019-05-01T23:44:01.576Z,10.60
2019-05-01T23:47:05.713Z,10.60
2019-05-01T23:50:13.597Z,10.60
2019-05-01T23:53:21.085Z,10.50
2019-05-01T23:56:31.009Z,10.50
2019-05-01T23:59:37.672Z,10.50
